createdAt,value
2022-11-09T00:00:23.602Z,14.71
2022-11-09T00:05:29.041Z,14.71
2022-11-09T00:10:35.268Z,14.69
2022-11-09T00:15:40.740Z,14.65
2022-11-09T00:20:48.298Z,14.67
2022-11-09T00:25:53.273Z,14.71
2022-11-09T00:31:10.854Z,14.72
2022-11-09T00:36:16.399Z,14.76
2022-11-09T00:41:22.430Z,14.71
2022-11-09T00:46:28.352Z,14.69
2022-11-09T00:51:34.333Z,14.73
2022-11-09T00:56:40.146Z,14.69
2022-11-09T01:01:47.413Z,14.69
2022-11-09T01:06:52.917Z,14.72
2022-11-09T01:11:58.421Z,14.70
2022-11-09T01:17:04.179Z,14.69
2022-11-09T01:22:09.646Z,14.68
2022-11-09T01:27:15.379Z,14.71
2022-11-09T01:32:20.926Z,14.73
2022-11-09T01:37:26.679Z,14.72
2022-11-09T01:42:33.580Z,14.69
2022-11-09T01:47:41.287Z,14.74
2022-11-09T01:52:50.041Z,14.66
2022-11-09T01:58:04.275Z,14.65
2022-11-09T02:03:12.696Z,14.63
2022-11-09T02:08:21.571Z,14.65
2022-11-09T02:13:30.163Z,14.62
2022-11-09T02:18:37.568Z,14.65
2022-11-09T02:23:43.123Z,14.65
2022-11-09T02:28:49.296Z,14.62
2022-11-09T02:33:57.252Z,14.65
2022-11-09T02:39:03.318Z,14.66
2022-11-09T02:44:09.226Z,14.67
2022-11-09T02:49:14.687Z,14.66
2022-11-09T02:54:20.208Z,14.70
2022-11-09T02:59:26.342Z,14.72
2022-11-09T03:04:32.153Z,14.71
2022-11-09T03:09:38.273Z,14.76
2022-11-09T03:14:44.644Z,14.75
2022-11-09T03:19:50.279Z,14.75
2022-11-09T03:24:56.152Z,14.71
2022-11-09T03:30:01.988Z,14.76
2022-11-09T03:35:08.907Z,14.72
2022-11-09T03:40:15.218Z,14.74
2022-11-09T03:45:22.024Z,14.70
2022-11-09T03:50:32.154Z,14.65
2022-11-09T03:55:38.382Z,14.62
2022-11-09T04:00:44.018Z,14.58
2022-11-09T04:05:49.471Z,14.53
2022-11-09T04:10:54.869Z,14.50
2022-11-09T04:16:00.547Z,14.46
2022-11-09T04:21:06.012Z,14.42
2022-11-09T04:26:11.673Z,14.35
2022-11-09T04:31:17.057Z,14.34
2022-11-09T04:36:22.511Z,14.34
2022-11-09T04:41:29.077Z,14.34
2022-11-09T04:46:34.467Z,14.32
2022-11-09T04:51:39.854Z,14.33
2022-11-09T04:56:46.177Z,14.35
2022-11-09T05:01:51.710Z,14.34
2022-11-09T05:06:57.147Z,14.35
2022-11-09T05:12:02.635Z,14.38
2022-11-09T05:17:08.951Z,14.40
2022-11-09T05:22:32.012Z,14.37
2022-11-09T05:27:39.054Z,14.42
2022-11-09T05:32:44.478Z,14.40
2022-11-09T05:37:50.873Z,14.41
2022-11-09T05:42:56.868Z,14.41
2022-11-09T05:48:04.722Z,14.46
2022-11-09T05:53:11.852Z,14.46
2022-11-09T05:58:18.327Z,14.44
2022-11-09T06:03:23.761Z,14.41
2022-11-09T06:08:29.435Z,14.40
2022-11-09T06:13:35.562Z,14.46
2022-11-09T06:18:41.000Z,14.47
2022-11-09T06:23:46.481Z,14.49
2022-11-09T06:28:51.961Z,14.54
2022-11-09T06:33:57.514Z,14.57
2022-11-09T06:39:02.919Z,14.61
2022-11-09T06:44:08.438Z,14.62
2022-11-09T06:49:13.827Z,14.60
2022-11-09T06:54:19.230Z,14.57
2022-11-09T06:59:24.699Z,14.59
2022-11-09T07:04:30.574Z,14.68
2022-11-09T07:09:36.043Z,14.66
2022-11-09T07:14:41.423Z,14.64
2022-11-09T07:19:47.544Z,14.67
2022-11-09T07:24:52.933Z,14.65
2022-11-09T07:29:58.336Z,14.62
2022-11-09T07:35:04.572Z,14.64
2022-11-09T07:40:11.220Z,14.68
2022-11-09T07:45:16.745Z,14.68
2022-11-09T07:50:22.141Z,14.73
2022-11-09T07:55:28.949Z,14.73
2022-11-09T08:00:37.224Z,14.74
2022-11-09T08:05:42.830Z,14.75
2022-11-09T08:10:49.913Z,14.72
2022-11-09T08:15:55.393Z,14.80
2022-11-09T08:21:03.489Z,14.79
2022-11-09T08:26:09.168Z,14.82
2022-11-09T08:31:14.716Z,14.78
2022-11-09T08:36:20.352Z,14.88
2022-11-09T08:41:25.837Z,14.88
2022-11-09T08:46:31.460Z,14.84
2022-11-09T08:51:36.849Z,14.96
2022-11-09T08:56:42.392Z,14.94
2022-11-09T09:01:47.868Z,14.89
2022-11-09T09:06:54.285Z,15.01
2022-11-09T09:12:00.274Z,15.07
2022-11-09T09:17:06.127Z,15.16
2022-11-09T09:22:11.516Z,15.20
2022-11-09T09:27:16.966Z,15.30
2022-11-09T09:32:22.368Z,15.31
2022-11-09T09:37:27.761Z,15.45
2022-11-09T09:42:38.876Z,15.46
2022-11-09T09:48:08.297Z,15.45
2022-11-09T09:53:25.151Z,15.41
2022-11-09T09:58:29.317Z,15.37
2022-11-09T10:03:34.703Z,15.35
2022-11-09T10:08:52.157Z,15.29
2022-11-09T10:14:03.605Z,15.17
2022-11-09T10:19:30.179Z,15.12
2022-11-09T10:24:58.704Z,15.12
2022-11-09T10:29:51.398Z,15.07
2022-11-09T10:34:59.912Z,15.14
2022-11-09T10:40:10.928Z,15.21
2022-11-09T10:45:37.675Z,15.17
2022-11-09T10:51:01.092Z,15.25
2022-11-09T10:56:25.215Z,15.21
2022-11-09T11:01:50.046Z,15.19
2022-11-09T11:07:22.918Z,15.19
2022-11-09T11:12:49.247Z,15.23
2022-11-09T11:18:23.141Z,15.20
2022-11-09T11:23:48.133Z,15.20
2022-11-09T11:29:37.689Z,15.17
2022-11-09T11:35:02.024Z,15.12
2022-11-09T11:40:37.845Z,15.08
2022-11-09T11:46:13.550Z,15.10
2022-11-09T11:51:48.861Z,15.24
2022-11-09T11:57:24.033Z,15.42
2022-11-09T12:03:09.411Z,15.71
2022-11-09T12:08:49.566Z,15.90
2022-11-09T12:14:30.619Z,16.18
2022-11-09T12:19:56.801Z,16.32
2022-11-09T12:25:56.601Z,16.31
2022-11-09T12:31:47.692Z,16.34
2022-11-09T12:37:17.046Z,16.58
2022-11-09T12:42:46.747Z,16.63
2022-11-09T12:48:24.794Z,16.64
2022-11-09T12:53:48.116Z,16.65
2022-11-09T12:59:29.671Z,16.62
2022-11-09T13:05:01.703Z,16.70
2022-11-09T13:10:37.595Z,16.91
2022-11-09T13:16:22.322Z,16.98
2022-11-09T13:21:45.591Z,17.01
2022-11-09T13:27:11.948Z,17.02
2022-11-09T13:32:35.331Z,17.07
2022-11-09T13:37:59.169Z,17.15
2022-11-09T13:43:28.329Z,17.25
2022-11-09T13:48:54.237Z,17.22
2022-11-09T13:54:32.802Z,17.16
2022-11-09T13:59:58.751Z,17.10
2022-11-09T14:05:34.689Z,17.01
2022-11-09T14:11:33.363Z,16.94
2022-11-09T14:17:22.502Z,16.83
2022-11-09T14:22:45.951Z,16.77
2022-11-09T14:28:27.468Z,16.70
2022-11-09T14:34:01.995Z,16.62
2022-11-09T14:39:35.443Z,16.47
2022-11-09T14:44:58.955Z,16.45
2022-11-09T14:50:25.895Z,16.38
2022-11-09T14:55:52.053Z,16.27
2022-11-09T15:01:24.304Z,16.21
2022-11-09T15:06:51.407Z,16.10
2022-11-09T15:12:16.868Z,16.01
2022-11-09T15:17:42.028Z,15.90
2022-11-09T15:23:23.733Z,15.77
2022-11-09T15:28:49.455Z,15.72
2022-11-09T15:34:18.931Z,15.59
2022-11-09T15:39:42.492Z,15.58
2022-11-09T15:45:06.548Z,15.49
2022-11-09T15:50:30.197Z,15.42
2022-11-09T15:55:53.651Z,15.33
2022-11-09T16:01:17.721Z,14.77
2022-11-09T16:06:46.325Z,15.22
2022-11-09T16:12:11.474Z,15.17
2022-11-09T16:17:34.995Z,15.15
2022-11-09T16:22:58.674Z,15.21
2022-11-09T16:28:24.029Z,15.21
2022-11-09T16:33:47.704Z,15.20
2022-11-09T16:39:13.570Z,15.20
2022-11-09T16:44:42.520Z,15.19
2022-11-09T16:50:06.521Z,15.13
2022-11-09T16:55:30.070Z,15.09
2022-11-09T17:01:10.587Z,15.05
2022-11-09T17:06:19.090Z,14.97
2022-11-09T17:11:43.018Z,14.87
2022-11-09T17:17:06.597Z,14.83
2022-11-09T17:22:31.215Z,14.82
2022-11-09T17:27:54.536Z,14.78
2022-11-09T17:33:18.309Z,14.76
2022-11-09T17:38:42.404Z,14.73
2022-11-09T17:44:06.116Z,14.73
2022-11-09T17:49:29.393Z,14.72
2022-11-09T17:54:53.037Z,14.73
2022-11-09T18:00:17.600Z,14.75
2022-11-09T18:05:42.927Z,14.74
2022-11-09T18:11:06.190Z,14.76
2022-11-09T18:16:29.242Z,14.75
2022-11-09T18:21:52.390Z,14.77
2022-11-09T18:27:15.631Z,14.77
2022-11-09T18:32:39.354Z,14.77
2022-11-09T18:38:02.902Z,14.71
2022-11-09T18:43:26.450Z,14.74
2022-11-09T18:48:54.609Z,14.72
2022-11-09T18:54:18.128Z,15.66
2022-11-09T18:59:42.662Z,14.97
2022-11-09T19:05:08.379Z,14.85
2022-11-09T19:10:31.943Z,14.85
2022-11-09T19:15:58.417Z,14.78
2022-11-09T19:21:41.321Z,14.71
2022-11-09T19:27:04.783Z,14.64
2022-11-09T19:32:28.355Z,14.59
2022-11-09T19:37:52.056Z,14.54
2022-11-09T19:43:15.607Z,14.51
2022-11-09T19:48:40.738Z,14.54
2022-11-09T19:54:06.083Z,14.49
2022-11-09T19:59:29.722Z,14.42
2022-11-09T20:04:54.600Z,14.43
2022-11-09T20:10:18.361Z,14.39
2022-11-09T20:15:41.888Z,14.38
2022-11-09T20:21:09.871Z,14.41
2022-11-09T20:26:33.642Z,14.42
2022-11-09T20:31:56.786Z,14.46
2022-11-09T20:37:20.501Z,14.41
2022-11-09T20:42:43.792Z,14.42
2022-11-09T20:48:19.319Z,14.38
2022-11-09T20:53:32.844Z,14.39
2022-11-09T20:58:56.439Z,14.34
2022-11-09T21:04:20.155Z,14.26
2022-11-09T21:09:43.656Z,14.17
2022-11-09T21:15:07.760Z,14.05
2022-11-09T21:20:31.002Z,14.03
2022-11-09T21:26:13.947Z,13.96
2022-11-09T21:31:37.185Z,13.85
2022-11-09T21:37:00.537Z,13.85
2022-11-09T21:42:23.944Z,13.87
2022-11-09T21:47:47.352Z,13.87
2022-11-09T21:53:10.944Z,13.87
2022-11-09T21:58:34.863Z,13.81
2022-11-09T22:03:58.764Z,13.80
2022-11-09T22:09:22.058Z,13.80
2022-11-09T22:15:03.604Z,13.72
2022-11-09T22:20:45.004Z,13.70
2022-11-09T22:26:09.187Z,13.65
2022-11-09T22:31:32.816Z,13.60
2022-11-09T22:36:56.538Z,13.62
2022-11-09T22:42:19.883Z,13.63
2022-11-09T22:47:43.336Z,13.62
2022-11-09T22:53:06.541Z,13.57
2022-11-09T22:58:30.802Z,13.60
2022-11-09T23:03:54.380Z,13.54
2022-11-09T23:09:18.020Z,13.54
2022-11-09T23:14:59.251Z,13.55
2022-11-09T23:20:23.506Z,13.55
2022-11-09T23:25:57.880Z,13.54
2022-11-09T23:31:25.938Z,13.48
2022-11-09T23:36:49.341Z,13.44
2022-11-09T23:42:12.655Z,13.45
2022-11-09T23:47:36.184Z,13.31
2022-11-09T23:53:01.256Z,13.43
2022-11-09T23:58:24.775Z,13.42
